Time;durP1;ratioP1;P1;durP2;ratioP2;P2;SDS_P1;SDS_P2;PMS_P1;PMS_P2;Temp;Humidity;BMP_temperature;BMP_pressure;BME280_temperature;BME280_humidity;BME280_pressure;Samples;Min_cycle;Max_cycle;Signal;HPM_P1;HPM_P2
2022/10/05 00:01:45;;;;;;;1.60;0.80;;;;;;;10.30;100.00;99898.81;1728757;80;21365;-48
2022/10/05 00:04:17;;;;;;;1.52;0.57;;;;;;;10.30;100.00;99897.47;1733727;81;22397;-47
2022/10/05 00:06:46;;;;;;;0.60;0.47;;;;;;;10.30;100.00;99893.44;1738343;80;20988;-47
2022/10/05 00:09:19;;;;;;;2.37;0.47;;;;;;;10.30;100.00;99894.78;1731805;80;21014;-48
2022/10/05 00:11:46;;;;;;;0.57;0.50;;;;;;;10.32;100.00;99899.63;1732254;81;20978;-49
2022/10/05 00:14:21;;;;;;;2.45;0.60;;;;;;;10.34;100.00;99905.83;1735564;81;21005;-47
2022/10/05 00:16:47;;;;;;;1.75;0.60;;;;;;;10.34;100.00;99911.67;1735273;81;21794;-46
2022/10/05 00:19:31;;;;;;;2.27;0.45;;;;;;;10.33;100.00;99913.48;1734395;80;21016;-49
2022/10/05 00:22:00;;;;;;;1.00;0.50;;;;;;;10.32;100.00;99917.59;1724848;81;21166;-50
2022/10/05 00:24:27;;;;;;;0.50;0.50;;;;;;;10.31;100.00;99927.47;1728120;81;20978;-47
2022/10/05 00:26:53;;;;;;;1.00;0.45;;;;;;;10.31;100.00;99927.94;1732486;80;21014;-49
2022/10/05 00:29:21;;;;;;;2.90;0.50;;;;;;;10.31;100.00;99920.75;1733167;80;22539;-48
2022/10/05 00:31:48;;;;;;;2.27;0.50;;;;;;;10.31;100.00;99930.63;1730255;81;20985;-47
2022/10/05 00:34:15;;;;;;;1.55;0.50;;;;;;;10.31;100.00;99925.25;1726941;81;20967;-48
2022/10/05 00:36:42;;;;;;;0.93;0.57;;;;;;;10.29;100.00;99934.77;1730795;80;20993;-49
2022/10/05 00:39:08;;;;;;;2.37;0.60;;;;;;;10.30;100.00;99931.57;1731287;81;21027;-48
2022/10/05 00:41:58;;;;;;;0.88;0.50;;;;;;;10.28;100.00;99934.83;1724820;81;21716;-51
2022/10/05 00:44:50;;;;;;;2.70;0.65;;;;;;;10.28;100.00;99936.17;1726963;81;21034;-51
2022/10/05 00:47:37;;;;;;;0.62;0.50;;;;;;;10.28;100.00;99943.77;1724639;80;21104;-52
2022/10/05 00:50:27;;;;;;;1.92;0.50;;;;;;;10.27;100.00;99948.75;1726971;81;21102;-51
2022/10/05 00:53:27;;;;;;;2.35;0.50;;;;;;;10.28;100.00;99948.28;1698912;82;21021;-47
2022/10/05 00:56:05;;;;;;;2.47;0.45;;;;;;;10.27;100.00;99955.94;1721245;80;21848;-47
2022/10/05 00:58:58;;;;;;;1.32;0.50;;;;;;;10.25;100.00;99965.42;1723675;81;21053;-51
2022/10/05 01:01:58;;;;;;;0.75;0.50;;;;;;;10.24;100.00;99969.92;1727029;81;21197;-48
2022/10/05 01:04:45;;;;;;;1.27;0.50;;;;;;;10.23;100.00;99974.89;1706855;80;21469;-48
2022/10/05 01:07:38;;;;;;;0.98;0.50;;;;;;;10.24;100.00;99987.88;1719957;81;21029;-47
2022/10/05 01:10:28;;;;;;;0.60;0.50;;;;;;;10.22;100.00;99983.91;1692704;81;21784;-51
2022/10/05 01:13:35;;;;;;;7.20;0.60;;;;;;;10.21;100.00;99989.34;1720658;80;21065;-48
2022/10/05 01:16:08;;;;;;;0.65;0.50;;;;;;;10.20;100.00;99993.87;1724015;81;21093;-49
2022/10/05 01:19:10;;;;;;;3.22;0.50;;;;;;;10.19;100.00;100004.70;1724446;82;21045;-47
2022/10/05 01:21:53;;;;;;;0.62;0.45;;;;;;;10.18;100.00;100003.82;1722451;80;21369;-48
2022/10/05 01:24:56;;;;;;;2.25;0.40;;;;;;;10.21;100.00;100012.20;1726091;80;22389;-47
2022/10/05 01:27:44;;;;;;;6.72;0.53;;;;;;;10.21;100.00;100018.94;1687614;83;21090;-47
2022/10/05 01:30:14;;;;;;;0.98;0.50;;;;;;;10.18;100.00;100024.47;1706944;80;21068;-47
2022/10/05 01:33:27;;;;;;;3.80;0.50;;;;;;;10.18;100.00;100036.57;1726766;80;21061;-46
2022/10/05 01:36:20;;;;;;;0.78;0.50;;;;;;;10.16;100.00;100020.45;1721533;81;21741;-45
2022/10/05 01:39:21;;;;;;;2.62;0.50;;;;;;;10.17;100.00;100036.13;1720114;81;21631;-49
2022/10/05 01:42:14;;;;;;;2.60;0.60;;;;;;;10.15;100.00;100036.66;1727678;80;21507;-49
2022/10/05 01:44:55;;;;;;;1.37;0.50;;;;;;;10.14;100.00;100038.94;1719978;81;21056;-47
2022/10/05 01:47:46;;;;;;;1.10;0.50;;;;;;;10.15;100.00;100046.06;1720902;82;21073;-50
2022/10/05 01:50:36;;;;;;;1.27;0.40;;;;;;;10.13;100.00;100048.81;1723967;80;21061;-48
2022/10/05 01:53:26;;;;;;;4.45;0.50;;;;;;;10.10;100.00;100046.28;1722699;81;21681;-48
2022/10/05 01:56:25;;;;;;;2.12;0.78;;;;;;;10.09;100.00;100059.31;1725796;81;21048;-50
2022/10/05 02:01:47;;;;;;;3.53;0.50;;;;;;;10.12;100.00;100052.44;1862142;75;22300;-48
2022/10/05 02:04:27;;;;;;;2.55;0.50;;;;;;;10.09;100.00;100065.16;1842322;75;21038;-50
2022/10/05 02:06:54;;;;;;;0.53;0.50;;;;;;;10.06;100.00;100063.47;1815753;77;21635;-48
2022/10/05 02:09:25;;;;;;;0.85;0.50;;;;;;;10.06;100.00;100066.16;1842429;75;21001;-48
2022/10/05 02:11:59;;;;;;;1.95;0.50;;;;;;;10.07;100.00;100072.41;1844760;75;21036;-48
2022/10/05 02:14:33;;;;;;;0.80;0.50;;;;;;;10.07;100.00;100081.83;1844588;75;21036;-49
2022/10/05 02:17:04;;;;;;;3.35;0.70;;;;;;;10.06;100.00;100090.36;1843821;75;21662;-48
2022/10/05 02:19:38;;;;;;;2.15;0.60;;;;;;;10.06;100.00;100088.14;1844723;75;21434;-49
2022/10/05 02:22:29;;;;;;;1.12;0.50;;;;;;;10.02;100.00;100099.51;1843588;75;21013;-46
2022/10/05 02:25:01;;;;;;;2.75;0.60;;;;;;;10.00;100.00;100101.37;1842356;75;21460;-47
2022/10/05 02:27:36;;;;;;;0.70;0.60;;;;;;;9.98;100.00;100109.97;1849272;75;21025;-49
2022/10/05 02:30:06;;;;;;;4.33;0.60;;;;;;;9.98;100.00;100105.05;1842496;75;21053;-47
2022/10/05 02:32:39;;;;;;;2.35;0.60;;;;;;;9.99;100.00;100112.19;1840335;75;21753;-48
2022/10/05 02:35:15;;;;;;;1.17;0.60;;;;;;;9.97;100.00;100117.63;1845822;75;21080;-47
2022/10/05 02:37:56;;;;;;;5.75;0.80;;;;;;;9.95;100.00;100121.33;1844214;76;21100;-48
2022/10/05 02:41:08;;;;;;;0.78;0.53;;;;;;;9.92;100.00;100126.35;1843906;75;21119;-49
2022/10/05 02:43:44;;;;;;;1.25;0.50;;;;;;;9.92;100.00;100118.75;1851349;75;21638;-47
2022/10/05 02:46:29;;;;;;;2.08;0.50;;;;;;;9.90;100.00;100122.84;1744803;79;21527;-48
2022/10/05 02:49:14;;;;;;;3.15;0.60;;;;;;;9.90;100.00;100124.19;1810333;77;21077;-48
2022/10/05 02:51:59;;;;;;;3.55;0.60;;;;;;;9.86;100.00;100122.11;1805384;78;21021;-46
2022/10/05 02:55:02;;;;;;;1.42;0.50;;;;;;;9.84;100.00;100122.63;1806505;78;21010;-48
2022/10/05 02:57:50;;;;;;;1.80;0.50;;;;;;;9.84;100.00;100115.91;1796641;78;21064;-46
2022/10/05 03:00:23;;;;;;;2.08;0.50;;;;;;;9.83;100.00;100121.34;1773315;77;21434;-47
2022/10/05 03:03:12;;;;;;;4.37;0.50;;;;;;;9.82;100.00;100120.92;1760502;79;20919;-50
2022/10/05 03:06:09;;;;;;;2.60;0.50;;;;;;;9.81;100.00;100124.08;1758887;79;20947;-47
2022/10/05 03:08:53;;;;;;;1.65;0.40;;;;;;;9.81;100.00;100120.52;1643596;85;20918;-47
2022/10/05 03:11:48;;;;;;;0.95;0.70;;;;;;;9.81;100.00;100121.39;1737277;79;26360;-47
2022/10/05 03:14:25;;;;;;;4.40;0.50;;;;;;;9.78;100.00;100113.44;1747146;79;21334;-48
2022/10/05 03:17:17;;;;;;;1.77;0.40;;;;;;;9.78;100.00;100121.50;1731870;79;20921;-50
2022/10/05 03:19:53;;;;;;;4.70;0.40;;;;;;;9.80;100.00;100122.79;1730264;79;20982;-47
2022/10/05 03:22:34;;;;;;;1.05;0.40;;;;;;;9.81;100.00;100142.90;1756359;79;20888;-47
2022/10/05 03:25:20;;;;;;;1.10;0.50;;;;;;;9.82;100.00;100146.00;1730787;79;20970;-49
2022/10/05 03:28:11;;;;;;;2.98;0.50;;;;;;;9.81;100.00;100156.80;1764267;79;21219;-48
2022/10/05 03:30:59;;;;;;;4.20;0.50;;;;;;;9.79;100.00;100159.55;1765980;79;20974;-47
2022/10/05 03:33:49;;;;;;;0.90;0.40;;;;;;;9.78;100.00;100163.17;1764467;79;21732;-48
2022/10/05 03:36:45;;;;;;;1.32;0.50;;;;;;;9.77;100.00;100158.76;1763447;79;20955;-48
2022/10/05 03:39:21;;;;;;;2.17;0.50;;;;;;;9.80;100.00;100157.73;1763606;79;20910;-48
2022/10/05 03:41:59;;;;;;;2.40;0.47;;;;;;;9.81;100.00;100159.03;1762374;79;21209;-48
2022/10/05 03:44:34;;;;;;;3.75;0.42;;;;;;;9.82;100.00;100160.78;1763591;79;21606;-48
2022/10/05 03:47:41;;;;;;;3.22;0.40;;;;;;;9.83;100.00;100167.92;1759191;79;21107;-48
2022/10/05 03:50:26;;;;;;;2.30;0.62;;;;;;;9.84;100.00;100166.98;1763100;79;22158;-51
2022/10/05 03:53:02;;;;;;;1.12;0.50;;;;;;;9.84;100.00;100166.98;1759357;79;21369;-47
2022/10/05 03:56:14;;;;;;;3.17;0.78;;;;;;;9.86;100.00;100172.31;1758012;79;21447;-47
2022/10/05 03:58:59;;;;;;;0.90;0.60;;;;;;;9.87;100.00;100170.88;1760179;79;21085;-46
2022/10/05 04:01:31;;;;;;;0.88;0.60;;;;;;;9.88;100.00;100170.42;1783455;78;21048;-46
2022/10/05 04:03:59;;;;;;;0.80;0.60;;;;;;;9.86;100.00;100173.19;1760223;79;21049;-48
2022/10/05 04:06:38;;;;;;;0.68;0.50;;;;;;;9.87;100.00;100174.91;1780310;78;21072;-47
2022/10/05 04:09:16;;;;;;;2.05;0.60;;;;;;;9.89;100.00;100177.55;1780720;78;21118;-46
2022/10/05 04:11:52;;;;;;;1.00;0.50;;;;;;;9.88;100.00;100175.33;1755690;78;21088;-47
2022/10/05 04:14:33;;;;;;;1.02;0.50;;;;;;;9.89;100.00;100180.24;1783856;78;21562;-47
2022/10/05 04:17:10;;;;;;;2.05;0.57;;;;;;;9.90;100.00;100181.12;1767419;78;21068;-47
2022/10/05 04:20:01;;;;;;;1.52;0.53;;;;;;;9.90;100.00;100184.69;1755182;78;21052;-46
2022/10/05 04:22:44;;;;;;;4.90;0.62;;;;;;;9.91;100.00;100187.79;1781855;78;21821;-48
2022/10/05 04:25:27;;;;;;;1.87;0.50;;;;;;;9.94;100.00;100188.15;1786343;78;21124;-47
2022/10/05 04:28:24;;;;;;;1.12;0.50;;;;;;;9.98;100.00;100192.45;1738533;78;21057;-48
2022/10/05 04:30:52;;;;;;;1.20;0.50;;;;;;;9.98;100.00;100200.52;1790139;78;21083;-47
2022/10/05 04:33:20;;;;;;;2.17;0.50;;;;;;;9.98;100.00;100200.06;1785113;78;21099;-48
2022/10/05 04:36:14;;;;;;;1.45;0.60;;;;;;;9.99;100.00;100202.28;1780981;78;22178;-49
2022/10/05 04:39:02;;;;;;;2.85;0.60;;;;;;;9.99;100.00;100204.50;1787793;78;21048;-49
2022/10/05 04:41:57;;;;;;;1.98;0.47;;;;;;;9.99;100.00;100204.97;1783180;78;21091;-50
2022/10/05 04:44:45;;;;;;;0.53;0.50;;;;;;;10.00;100.00;100204.91;1786329;78;21514;-49
2022/10/05 04:47:34;;;;;;;1.35;0.57;;;;;;;10.02;100.00;100210.24;1782195;78;21095;-49
2022/10/05 04:50:21;;;;;;;1.27;0.40;;;;;;;10.02;100.00;100215.16;1784984;78;21844;-49
2022/10/05 04:53:22;;;;;;;0.93;0.47;;;;;;;10.03;100.00;100212.88;1781573;78;21029;-49
2022/10/05 04:56:21;;;;;;;0.75;0.55;;;;;;;10.06;100.00;100219.92;1786118;78;21509;-49
2022/10/05 04:59:05;;;;;;;5.20;1.00;;;;;;;10.05;100.00;100225.77;1784358;78;21550;-50
2022/10/05 05:01:55;;;;;;;2.15;0.60;;;;;;;10.08;100.00;100231.52;1783514;78;21048;-49
2022/10/05 05:04:49;;;;;;;1.02;0.50;;;;;;;10.09;100.00;100235.49;1786891;78;21909;-50
2022/10/05 05:07:21;;;;;;;4.35;0.50;;;;;;;10.12;100.00;100237.20;1762535;78;21058;-50
2022/10/05 05:10:27;;;;;;;0.60;0.42;;;;;;;10.10;100.00;100245.78;1781094;78;21555;-49
2022/10/05 05:13:27;;;;;;;3.05;0.40;;;;;;;10.10;100.00;100251.16;1780953;78;21053;-49
2022/10/05 05:16:13;;;;;;;3.15;0.37;;;;;;;10.13;100.00;100261.78;1782710;78;21080;-49
2022/10/05 05:18:57;;;;;;;4.72;0.50;;;;;;;10.14;100.00;100264.89;1781359;78;21854;-49
2022/10/05 05:22:03;;;;;;;0.80;0.40;;;;;;;10.13;100.00;100265.82;1784001;78;21104;-49
2022/10/05 05:24:54;;;;;;;0.60;0.40;;;;;;;10.15;100.00;100267.99;1770222;78;21070;-49
2022/10/05 05:27:42;;;;;;;4.37;0.60;;;;;;;10.18;100.00;100265.23;1784053;78;21057;-50
2022/10/05 05:30:41;;;;;;;1.12;0.40;;;;;;;10.19;100.00;100271.02;1748647;78;21095;-49
2022/10/05 05:33:26;;;;;;;0.65;0.42;;;;;;;10.20;100.00;100272.31;1787425;78;21822;-50
2022/10/05 05:36:27;;;;;;;1.82;0.37;;;;;;;10.23;100.00;100271.30;1782404;78;21772;-49
2022/10/05 05:39:35;;;;;;;2.58;0.50;;;;;;;10.24;100.00;100274.41;1784071;78;20985;-50
2022/10/05 05:42:39;;;;;;;1.55;0.50;;;;;;;10.25;100.00;100278.84;1783390;78;21047;-50
2022/10/05 05:45:20;;;;;;;2.62;0.50;;;;;;;10.28;100.00;100280.09;1783134;78;21029;-49
2022/10/05 05:47:52;;;;;;;4.42;0.40;;;;;;;10.31;100.00;100281.30;1776659;78;21875;-50
2022/10/05 05:50:40;;;;;;;0.85;0.70;;;;;;;10.34;100.00;100283.88;1784587;78;21119;-50
2022/10/05 05:53:30;;;;;;;1.32;0.60;;;;;;;10.40;100.00;100286.32;1782307;78;21068;-50
2022/10/05 05:56:17;;;;;;;1.25;0.60;;;;;;;10.42;100.00;100295.22;1788943;78;21033;-49
2022/10/05 05:58:49;;;;;;;1.65;0.78;;;;;;;10.45;100.00;100300.50;1784685;78;21037;-50
2022/10/05 06:01:36;;;;;;;1.57;0.85;;;;;;;10.48;100.00;100297.66;1802815;77;21800;-50
2022/10/05 06:04:17;;;;;;;2.77;0.78;;;;;;;10.50;100.00;100304.34;1772827;78;22336;-50
2022/10/05 06:06:50;;;;;;;2.00;0.90;;;;;;;10.55;100.00;100309.06;1788764;77;20976;-50
2022/10/05 06:09:23;;;;;;;4.30;0.82;;;;;;;10.58;100.00;100305.79;1785046;77;21028;-49
2022/10/05 06:11:53;;;;;;;1.52;0.70;;;;;;;10.59;100.00;100306.67;1773377;78;21004;-49
2022/10/05 06:14:29;;;;;;;3.45;0.60;;;;;;;10.63;100.00;100307.81;1786753;78;22531;-50
2022/10/05 06:17:07;;;;;;;1.42;0.50;;;;;;;10.66;100.00;100316.72;1783145;79;21441;-50
2022/10/05 06:19:34;;;;;;;2.35;0.42;;;;;;;10.69;100.00;100328.72;1710012;79;20961;-50
2022/10/05 06:22:06;;;;;;;2.02;0.50;;;;;;;10.70;100.00;100321.06;1737178;79;20975;-50
2022/10/05 06:24:40;;;;;;;0.85;0.40;;;;;;;10.74;100.00;100336.14;1781612;79;21527;-50
2022/10/05 06:27:25;;;;;;;1.37;0.50;;;;;;;10.74;100.00;100336.14;1715586;79;21793;-50
2022/10/05 06:30:08;;;;;;;3.65;0.60;;;;;;;10.74;100.00;100344.22;1781130;78;21350;-49
2022/10/05 06:32:43;;;;;;;;;;;;;;;10.77;100.00;100349.49;1785979;78;20977;-49
2022/10/05 06:35:52;;;;;;;2.65;0.45;;;;;;;10.82;100.00;100351.52;1782283;78;20428;-49
2022/10/05 06:38:52;;;;;;;0.80;0.40;;;;;;;10.87;100.00;100352.23;1781299;79;20981;-49
2022/10/05 06:41:48;;;;;;;3.17;0.40;;;;;;;10.96;100.00;100356.78;1774873;78;22295;-49
2022/10/05 06:44:18;;;;;;;;;;;;;;;10.96;100.00;100356.78;1781961;79;21048;-49
2022/10/05 06:47:12;;;;;;;2.15;0.42;;;;;;;11.05;100.00;100362.27;1780944;79;21197;-50
2022/10/05 06:53:26;;;;;;;0.97;0.40;;;;;;;11.13;100.00;100352.53;1758940;79;23405;-49
2022/10/05 06:56:19;;;;;;;3.83;0.50;;;;;;;11.21;100.00;100359.83;1729775;80;21090;-49
2022/10/05 06:59:14;;;;;;;0.60;0.40;;;;;;;11.23;100.00;100361.49;1735788;79;21856;-49
2022/10/05 07:02:15;;;;;;;0.90;0.40;;;;;;;11.24;100.00;100361.91;1736799;79;21041;-50
2022/10/05 07:05:22;;;;;;;3.33;0.72;;;;;;;11.24;100.00;100361.91;1740525;79;21190;-50
2022/10/05 07:07:59;;;;;;;1.17;0.30;;;;;;;11.30;100.00;100368.41;1731560;79;21071;-50
2022/10/05 07:10:41;;;;;;;0.70;0.40;;;;;;;11.37;100.00;100373.07;1734941;79;21092;-51
2022/10/05 07:13:22;;;;;;;1.22;0.47;;;;;;;11.42;100.00;100375.56;1741649;79;21946;-50
2022/10/05 07:16:16;;;;;;;2.67;0.40;;;;;;;11.45;100.00;100375.44;1724159;79;21151;-49
2022/10/05 07:19:01;;;;;;;0.55;0.40;;;;;;;11.48;100.00;100378.02;1737143;79;22504;-50
2022/10/05 07:21:38;;;;;;;0.98;0.40;;;;;;;11.48;100.00;100381.59;1734796;79;21052;-49
2022/10/05 07:24:44;;;;;;;1.42;0.30;;;;;;;11.49;100.00;100384.67;1682820;83;21024;-49
2022/10/05 07:27:21;;;;;;;1.40;0.60;;;;;;;11.50;100.00;100387.78;1683942;83;22603;-49
2022/10/05 07:30:08;;;;;;;1.85;0.30;;;;;;;11.55;100.00;100397.92;1696245;82;21402;-49
2022/10/05 07:33:12;;;;;;;2.92;0.50;;;;;;;11.55;100.00;100397.92;1697251;82;21093;-49
2022/10/05 07:39:19;;;;;;;1.12;0.40;;;;;;;11.60;100.00;100403.98;1695861;82;21166;-49
2022/10/05 07:41:53;;;;;;;1.20;0.40;;;;;;;11.63;100.00;100411.95;1698522;82;21829;-50
2022/10/05 07:44:39;;;;;;;1.85;0.40;;;;;;;11.73;100.00;100413.80;1694314;82;21516;-49
2022/10/05 07:47:53;;;;;;;1.60;0.35;;;;;;;11.79;100.00;100421.64;1696178;82;21085;-49
2022/10/05 07:50:33;;;;;;;1.05;0.30;;;;;;;11.82;100.00;100425.58;1695087;82;21317;-50
2022/10/05 07:53:21;;;;;;;0.72;0.30;;;;;;;11.88;100.00;100429.82;1700404;81;21531;-49
2022/10/05 07:55:56;;;;;;;0.55;0.30;;;;;;;11.90;100.00;100422.55;1677300;81;21711;-50
2022/10/05 07:58:30;;;;;;;0.60;0.28;;;;;;;11.91;100.00;100429.20;1675188;81;21798;-49
2022/10/05 08:01:21;;;;;;;0.75;0.40;;;;;;;11.94;100.00;100429.55;1699630;81;21288;-49
2022/10/05 08:03:51;;;;;;;1.52;0.30;;;;;;;11.94;100.00;100424.15;1682883;82;21083;-50
2022/10/05 08:06:45;;;;;;;0.40;0.30;;;;;;;11.94;100.00;100425.50;1682479;82;21122;-51
2022/10/05 08:09:34;;;;;;;0.93;0.30;;;;;;;11.96;100.00;100411.48;1673789;82;22402;-52
2022/10/05 08:12:30;;;;;;;0.47;0.30;;;;;;;11.99;100.00;100415.41;1702170;81;21564;-52
2022/10/05 08:15:16;;;;;;;0.50;0.30;;;;;;;12.01;100.00;100407.63;1680970;83;21060;-52
2022/10/05 08:18:04;;;;;;;3.70;0.33;;;;;;;12.05;100.00;100408.38;1696832;81;21116;-53
2022/10/05 08:20:49;;;;;;;0.40;0.30;;;;;;;12.07;100.00;100404.69;1681883;83;21081;-52
2022/10/05 08:23:48;;;;;;;2.08;0.40;;;;;;;12.08;100.00;100415.85;1698570;81;27566;-52
2022/10/05 08:26:29;;;;;;;0.45;0.30;;;;;;;12.11;100.00;100423.83;1681999;84;21076;-51
2022/10/05 08:29:26;;;;;;;7.75;0.50;;;;;;;12.18;100.00;100414.98;1678701;82;21103;-52
2022/10/05 08:31:59;;;;;;;2.55;0.30;;;;;;;12.22;100.00;100423.83;1677557;82;21001;-52
2022/10/05 08:34:44;;;;;;;0.68;0.30;;;;;;;12.24;100.00;100420.59;1678240;82;21621;-49
2022/10/05 08:37:19;;;;;;;0.30;0.30;;;;;;;12.24;100.00;100421.95;1681016;82;21778;-49
2022/10/05 08:39:54;;;;;;;;;;;;;;;12.24;100.00;100434.98;1681194;82;21088;-50
2022/10/05 08:42:41;;;;;;;;;;;;;;;12.25;100.00;100435.35;1684683;82;20226;-50
2022/10/05 08:45:20;;;;;;;;;;;;;;;12.27;100.00;100432.59;1680069;82;20533;-51
2022/10/05 08:48:15;;;;;;;;;;;;;;;12.29;100.00;100436.98;1681490;84;20417;-49
2022/10/05 08:51:11;;;;;;;;;;;;;;;12.32;100.00;100444.95;1682979;82;22520;-49
2022/10/05 08:53:53;;;;;;;;;;;;;;;12.36;100.00;100442.98;1682755;82;20504;-51
2022/10/05 08:56:39;;;;;;;;;;;;;;;12.39;100.00;100456.36;1685296;82;20461;-50
2022/10/05 08:59:34;;;;;;;;;;;;;;;12.42;100.00;100450.80;1680098;82;20561;-50
2022/10/05 09:02:19;;;;;;;;;;;;;;;12.43;100.00;100457.48;1682282;82;20429;-50
2022/10/05 09:05:15;;;;;;;;;;;;;;;12.46;100.00;100468.16;1682638;83;21811;-50
2022/10/05 09:08:01;;;;;;;;;;;;;;;12.47;100.00;100481.19;1683909;82;20204;-50
2022/10/05 09:10:32;;;;;;;;;;;;;;;12.49;100.00;100475.25;1680589;82;20481;-49
2022/10/05 09:13:17;;;;;;;;;;;;;;;12.50;100.00;100477.02;1684857;82;20210;-50
2022/10/05 09:16:10;;;;;;;;;;;;;;;12.49;100.00;100478.83;1687004;82;20195;-50
2022/10/05 09:19:00;;;;;;;;;;;;;;;12.50;100.00;100478.36;1685552;82;21799;-51
2022/10/05 09:21:42;;;;;;;;;;;;;;;12.53;100.00;100484.08;1680674;83;21057;-52
2022/10/05 09:24:15;;;;;;;;;;;;;;;12.51;100.00;100465.23;1683488;82;20648;-52
2022/10/05 09:26:51;;;;;;;;;;;;;;;12.53;100.00;100462.00;1681607;83;20196;-53
2022/10/05 09:29:52;;;;;;;;;;;;;;;12.53;100.00;100470.10;1683153;82;20192;-52
2022/10/05 09:32:48;;;;;;;;;;;;;;;12.56;100.00;100465.05;1682257;84;21807;-52
2022/10/05 09:35:21;;;;;;;;;;;;;;;12.58;100.00;100457.29;1681083;82;21264;-51
2022/10/05 09:38:09;;;;;;;;;;;;;;;12.62;100.00;100471.04;1682608;82;20326;-52
2022/10/05 09:40:41;;;;;;;;;;;;;;;12.64;100.00;100474.56;1681710;82;20674;-52
2022/10/05 09:43:28;;;;;;;;;;;;;;;12.70;100.00;100479.67;1680440;82;20923;-52
2022/10/05 09:46:17;;;;;;;;;;;;;;;12.77;100.00;100471.69;1677209;83;21853;-52
2022/10/05 09:48:50;;;;;;;;;;;;;;;12.82;100.00;100470.14;1681194;82;20223;-50
2022/10/05 09:51:32;;;;;;;;;;;;;;;12.86;100.00;100469.04;1679409;82;20234;-51
2022/10/05 09:54:31;;;;;;;;;;;;;;;12.89;100.00;100465.73;1680239;82;20530;-51
2022/10/05 09:57:07;;;;;;;;;;;;;;;12.90;100.00;100478.77;1684221;83;20340;-51
2022/10/05 09:59:44;;;;;;;;;;;;;;;12.91;100.00;100483.70;1680097;83;21683;-50
2022/10/05 10:02:47;;;;;;;;;;;;;;;12.93;100.00;100477.26;1685741;83;20735;-50
2022/10/05 10:05:38;;;;;;;;;;;;;;;12.97;100.00;100482.06;1672579;83;20208;-51
2022/10/05 10:08:15;;;;;;;;;;;;;;;13.03;100.00;100479.06;1688667;83;20624;-50
2022/10/05 10:10:59;;;;;;;;;;;;;;;13.08;100.00;100467.11;1701219;81;20445;-50
2022/10/05 10:13:38;;;;;;;;;;;;;;;13.15;100.00;100469.08;1703533;81;21834;-51
2022/10/05 10:16:11;;;;;;;;;;;;;;;13.20;100.00;100472.42;1703350;82;21189;-50
2022/10/05 10:18:50;;;;;;;;;;;;;;;13.22;100.00;100471.41;1700674;81;20238;-51
2022/10/05 10:21:48;;;;;;;;;;;;;;;13.25;100.00;100477.16;1674713;84;20827;-50
2022/10/05 10:24:50;;;;;;;;;;;;;;;13.31;100.00;100478.67;1698135;82;20505;-50
2022/10/05 10:27:37;;;;;;;;;;;;;;;13.37;100.00;100480.60;1702851;82;22423;-50
2022/10/05 10:30:18;;;;;;;;;;;;;;;13.47;100.00;100478.33;1702734;81;20285;-50
2022/10/05 10:33:10;;;;;;;;;;;;;;;13.58;100.00;100484.98;1700379;82;20272;-50
2022/10/05 10:35:37;;;;;;;;;;;;;;;13.71;100.00;100486.59;1701447;83;20775;-50
2022/10/05 10:38:21;;;;;;;;;;;;;;;13.81;100.00;100489.25;1702338;82;20260;-50
2022/10/05 10:40:56;;;;;;;;;;;;;;;13.85;100.00;100496.75;1696279;83;21807;-50
2022/10/05 10:43:29;;;;;;;;;;;;;;;13.85;100.00;100496.75;1698410;83;20446;-50
2022/10/05 10:46:16;;;;;;;;;;;;;;;13.81;100.00;100497.84;1693344;83;20820;-50
2022/10/05 10:48:46;;;;;;;;;;;;;;;13.75;100.00;100490.92;1702130;83;20829;-50
2022/10/05 10:51:22;;;;;;;;;;;;;;;13.73;100.00;100481.11;1705066;83;20250;-50
2022/10/05 10:54:01;;;;;;;;;;;;;;;13.73;100.00;100487.87;1690257;82;21829;-50
2022/10/05 10:56:45;;;;;;;;;;;;;;;13.71;100.00;100487.06;1676973;83;20464;-50
2022/10/05 10:59:45;;;;;;;;;;;;;;;13.70;100.00;100488.02;1663799;84;20495;-50
2022/10/05 11:02:41;;;;;;;;;;;;;;;13.68;100.00;100483.19;1683791;84;20237;-50
2022/10/05 11:05:20;;;;;;;;;;;;;;;13.66;100.00;100481.02;1661500;84;20411;-51
2022/10/05 11:08:05;;;;;;;;;;;;;;;13.65;100.00;100492.31;1678400;84;21784;-50
2022/10/05 11:10:42;;;;;;;;;;;;;;;13.70;100.00;100489.37;1683956;82;20540;-51
2022/10/05 11:13:24;;;;;;;;;;;;;;;13.76;100.00;100495.86;1682070;83;20358;-50
2022/10/05 11:16:09;;;;;;;;;;;;;;;13.81;100.00;100487.02;1680137;84;20227;-51
2022/10/05 11:18:56;;;;;;;;;;;;;;;13.85;100.00;100471.92;1670914;82;21296;-51
2022/10/05 11:21:33;;;;;;;;;;;;;;;13.88;100.00;100477.16;1679928;83;21945;-51
2022/10/05 11:24:31;;;;;;;;;;;;;;;13.90;100.00;100477.09;1679853;83;20912;-50
2022/10/05 11:27:10;;;;;;;;;;;;;;;13.91;100.00;100474.78;1655761;82;20259;-50
2022/10/05 11:29:48;;;;;;;;;;;;;;;13.93;100.00;100474.23;1679797;82;20901;-50
2022/10/05 11:32:23;;;;;;;;;;;;;;;13.93;100.00;100468.83;1678070;83;20195;-51
2022/10/05 11:35:16;;;;;;;;;;;;;;;13.90;100.00;100472.55;1679532;82;21968;-50
2022/10/05 11:37:46;;;;;;;;;;;;;;;13.86;100.00;100467.39;1684861;84;20207;-50
2022/10/05 11:40:32;;;;;;;;;;;;;;;13.84;100.00;100467.46;1683430;82;20210;-50
2022/10/05 11:43:21;;;;;;;;;;;;;;;13.83;100.00;100475.65;1682983;83;20884;-50
2022/10/05 11:46:08;;;;;;;;;;;;;;;13.83;100.00;100473.83;1684377;83;20951;-50
2022/10/05 11:48:41;;;;;;;;;;;;;;;13.81;100.00;100478.90;1673204;82;21836;-50
2022/10/05 11:51:23;;;;;;;;;;;;;;;13.76;100.00;100480.97;1657644;84;20581;-52
2022/10/05 11:54:16;;;;;;;;;;;;;;;13.71;100.00;100476.25;1668962;82;20206;-51
2022/10/05 11:56:42;;;;;;;;;;;;;;;13.66;100.00;100475.14;1656735;85;20208;-51
2022/10/05 11:59:14;;;;;;;;;;;;;;;13.59;100.00;100474.57;1670245;83;20639;-50
2022/10/05 12:01:50;;;;;;;;;;;;;;;13.55;100.00;100487.83;1643191;85;21856;-51
2022/10/05 12:04:19;;;;;;;;;;;;;;;13.54;100.00;100486.55;1670336;85;20178;-51
2022/10/05 12:07:04;;;;;;;;;;;;;;;13.53;100.00;100501.02;1669053;85;20183;-51
2022/10/05 12:10:12;;;;;;;;;;;;;;;13.52;100.00;100499.29;1666752;83;20276;-50
2022/10/05 12:12:11;;;;;;;;;;;;;;;13.51;100.00;100497.06;1664638;85;20496;-50
2022/10/05 12:14:51;;;;;;;;;;;;;;;13.52;100.00;100497.47;1668625;85;20222;-50
2022/10/05 12:17:36;;;;;;;;;;;;;;;13.54;100.00;100500.95;1667945;83;20233;-50
2022/10/05 12:20:15;;;;;;;;;;;;;;;13.56;100.00;100503.11;1662866;85;20597;-51
2022/10/05 12:22:45;;;;;;;;;;;;;;;13.59;100.00;100516.97;1665802;85;20907;-51
2022/10/05 12:25:33;;;;;;;;;;;;;;;13.59;100.00;100520.55;1666338;85;20181;-51
2022/10/05 12:28:03;;;;;;;;;;;;;;;13.58;100.00;100528.27;1662578;83;21881;-50
2022/10/05 12:30:52;;;;;;;;;;;;;;;13.55;100.00;100521.64;1666960;85;20258;-51
2022/10/05 12:33:24;;;;;;;;;;;;;;;13.53;100.00;100532.12;1565022;89;20648;-51
2022/10/05 12:35:54;;;;;;;;;;;;;;;13.48;100.00;100530.12;1639073;85;21067;-51
2022/10/05 12:38:27;;;;;;;;;;;;;;;13.46;100.00;100530.19;1667709;85;20238;-50
2022/10/05 12:41:09;;;;;;;;;;;;;;;13.44;100.00;100525.32;1667374;85;22398;-50
2022/10/05 12:43:49;;;;;;;;;;;;;;;13.42;100.00;100531.30;1664788;83;20694;-50
2022/10/05 12:46:19;;;;;;;;;;;;;;;13.39;100.00;100538.20;1670094;83;20229;-51
2022/10/05 12:48:59;;;;;;;;;;;;;;;13.37;100.00;100540.56;1663446;83;20285;-52
2022/10/05 12:51:32;;;;;;;;;;;;;;;13.34;100.00;100538.02;1667895;83;20233;-51
2022/10/05 12:54:17;;;;;;;;;;;;;;;13.33;100.00;100541.20;1666663;83;22563;-50
2022/10/05 12:56:58;;;;;;;;;;;;;;;13.30;100.00;100533.70;1665846;83;20889;-51
2022/10/05 12:59:31;;;;;;;;;;;;;;;13.28;100.00;100536.47;1671444;83;20314;-51
2022/10/05 13:02:10;;;;;;;;;;;;;;;13.28;100.00;100536.94;1663826;83;20217;-50
2022/10/05 13:04:40;;;;;;;;;;;;;;;13.31;100.00;100533.62;1656807;84;20294;-51
2022/10/05 13:07:28;;;;;;;;;;;;;;;13.37;100.00;100533.33;1662930;83;21909;-50
2022/10/05 13:10:13;;;;;;;;;;;;;;;13.43;100.00;100545.23;1659023;83;20645;-50
2022/10/05 13:12:52;;;;;;;;;;;;;;;13.49;100.00;100551.70;1643116;85;20210;-52